YMAV/AVV METAR and TAF weather

Enter ICAO airport designator
Station Type Date Time Source
YMAV METAR 2020/07/12 02:00 UTC NOAA

YMAV 120200Z AUTO 14009KT 9999 // SCT041 14/11 Q1020


Station Type Date Time Source
YMAV Decoded METAR 2020/07/12 02:00 UTC NOAA

Avalon, Avalon Airport, Australia (YMAV) 38-02S 144-29E
Jul 11, 2020 - 10:00 PM EDT / 2020.07.12 0200 UTC
Wind: from the SE (140 degrees) at 10 MPH (9 KT):0
Visibility: greater than 7 mile(s):0
Sky conditions: partly cloudy
Temperature: 57 F (14 C)
Dew Point: 51 F (11 C)
Relative Humidity: 82%
Pressure (altimeter): 30.12 in. Hg (1020 hPa)
ob: YMAV 120200Z AUTO 14009KT 9999 // SCT041 14/11 Q1020
cycle: 2

Station Type Date Time Source
YMAV TAF 2020/07/11 18:33 UTC NOAA

TAF YMAV 111700Z 1118/1218 VRB03KT 4000 -SHRA BR BKN020
BECMG 1120/1122 14006KT 9999 -SHRA BKN030
BECMG 1204/1206 17006KT 9999 -SHRA SCT030
TEMPO 1118/1123 4000 SHRA BKN010
TEMPO 1215/1218 4000 SHRA BKN010 PROB30 1118/1122 0500 FG BKN001

Example: see airport list